sensor_id;sensor_type;location;lat;lon;timestamp;temperature;humidity
65034;DHT22;51601;51.356;12.458;2022-10-31T00:02:40;15.10;72.40
65034;DHT22;51601;51.356;12.458;2022-10-31T00:07:07;15.10;72.50
65034;DHT22;51601;51.356;12.458;2022-10-31T00:11:22;15.10;72.60
65034;DHT22;51601;51.356;12.458;2022-10-31T00:15:37;15.00;72.50
65034;DHT22;51601;51.356;12.458;2022-10-31T00:19:54;14.90;72.30
65034;DHT22;51601;51.356;12.458;2022-10-31T00:24:18;14.90;72.60
65034;DHT22;51601;51.356;12.458;2022-10-31T00:28:34;14.80;72.70
65034;DHT22;51601;51.356;12.458;2022-10-31T00:32:48;14.70;73.00
65034;DHT22;51601;51.356;12.458;2022-10-31T00:37:02;14.70;73.20
65034;DHT22;51601;51.356;12.458;2022-10-31T00:41:17;14.70;73.20
65034;DHT22;51601;51.356;12.458;2022-10-31T00:45:32;14.60;73.30
65034;DHT22;51601;51.356;12.458;2022-10-31T00:49:46;14.50;73.50
65034;DHT22;51601;51.356;12.458;2022-10-31T00:54:00;14.50;73.80
65034;DHT22;51601;51.356;12.458;2022-10-31T00:58:13;14.40;74.10
65034;DHT22;51601;51.356;12.458;2022-10-31T01:02:28;14.30;74.50
65034;DHT22;51601;51.356;12.458;2022-10-31T01:06:42;14.30;74.90
65034;DHT22;51601;51.356;12.458;2022-10-31T01:11:01;14.20;74.90
65034;DHT22;51601;51.356;12.458;2022-10-31T01:15:20;14.20;75.30
65034;DHT22;51601;51.356;12.458;2022-10-31T01:19:35;14.20;75.40
65034;DHT22;51601;51.356;12.458;2022-10-31T01:23:49;14.10;75.40
65034;DHT22;51601;51.356;12.458;2022-10-31T01:28:03;14.10;75.40
65034;DHT22;51601;51.356;12.458;2022-10-31T01:32:18;14.00;75.80
65034;DHT22;51601;51.356;12.458;2022-10-31T01:36:35;13.90;76.20
65034;DHT22;51601;51.356;12.458;2022-10-31T01:40:50;13.90;76.40
65034;DHT22;51601;51.356;12.458;2022-10-31T01:45:05;13.90;76.50
65034;DHT22;51601;51.356;12.458;2022-10-31T01:49:22;13.80;76.60
65034;DHT22;51601;51.356;12.458;2022-10-31T01:53:39;13.80;76.50
65034;DHT22;51601;51.356;12.458;2022-10-31T01:57:57;13.70;76.60
65034;DHT22;51601;51.356;12.458;2022-10-31T02:02:13;13.60;76.90
65034;DHT22;51601;51.356;12.458;2022-10-31T02:06:37;13.50;77.30
65034;DHT22;51601;51.356;12.458;2022-10-31T02:10:54;13.50;77.60
65034;DHT22;51601;51.356;12.458;2022-10-31T02:15:09;13.50;78.00
65034;DHT22;51601;51.356;12.458;2022-10-31T02:19:33;13.40;78.20
65034;DHT22;51601;51.356;12.458;2022-10-31T02:24:14;13.40;78.40
65034;DHT22;51601;51.356;12.458;2022-10-31T02:33:26;13.40;78.80
65034;DHT22;51601;51.356;12.458;2022-10-31T02:37:48;13.30;79.80
65034;DHT22;51601;51.356;12.458;2022-10-31T02:42:07;13.30;79.30
65034;DHT22;51601;51.356;12.458;2022-10-31T02:46:27;13.20;79.50
65034;DHT22;51601;51.356;12.458;2022-10-31T02:50:51;13.20;79.80
65034;DHT22;51601;51.356;12.458;2022-10-31T02:55:11;13.10;79.90
65034;DHT22;51601;51.356;12.458;2022-10-31T02:59:26;13.10;80.10
65034;DHT22;51601;51.356;12.458;2022-10-31T03:03:54;13.10;80.30
65034;DHT22;51601;51.356;12.458;2022-10-31T03:08:19;13.10;80.50
65034;DHT22;51601;51.356;12.458;2022-10-31T03:12:38;13.10;80.60
65034;DHT22;51601;51.356;12.458;2022-10-31T03:17:03;13.10;81.30
65034;DHT22;51601;51.356;12.458;2022-10-31T03:21:21;13.10;80.80
65034;DHT22;51601;51.356;12.458;2022-10-31T03:25:39;13.00;80.80
65034;DHT22;51601;51.356;12.458;2022-10-31T03:29:57;13.00;80.60
65034;DHT22;51601;51.356;12.458;2022-10-31T03:34:14;13.00;80.50
65034;DHT22;51601;51.356;12.458;2022-10-31T03:38:29;12.90;80.90
65034;DHT22;51601;51.356;12.458;2022-10-31T03:42:53;12.90;81.30
65034;DHT22;51601;51.356;12.458;2022-10-31T03:47:08;12.80;81.50
65034;DHT22;51601;51.356;12.458;2022-10-31T03:51:24;12.90;82.00
65034;DHT22;51601;51.356;12.458;2022-10-31T03:55:41;12.80;82.20
65034;DHT22;51601;51.356;12.458;2022-10-31T04:00:00;12.80;82.50
65034;DHT22;51601;51.356;12.458;2022-10-31T04:04:19;12.80;82.50
65034;DHT22;51601;51.356;12.458;2022-10-31T04:08:39;12.90;82.40
65034;DHT22;51601;51.356;12.458;2022-10-31T04:13:01;12.80;83.00
65034;DHT22;51601;51.356;12.458;2022-10-31T04:17:28;12.80;82.20
65034;DHT22;51601;51.356;12.458;2022-10-31T04:21:44;12.70;82.20
65034;DHT22;51601;51.356;12.458;2022-10-31T04:25:58;12.70;82.50
65034;DHT22;51601;51.356;12.458;2022-10-31T04:30:12;12.60;82.80
65034;DHT22;51601;51.356;12.458;2022-10-31T04:34:28;12.60;82.90
65034;DHT22;51601;51.356;12.458;2022-10-31T04:38:42;12.60;83.10
65034;DHT22;51601;51.356;12.458;2022-10-31T04:43:09;12.50;83.20
65034;DHT22;51601;51.356;12.458;2022-10-31T04:47:24;12.50;83.30
65034;DHT22;51601;51.356;12.458;2022-10-31T04:51:39;12.40;83.50
65034;DHT22;51601;51.356;12.458;2022-10-31T04:55:54;12.30;83.90
65034;DHT22;51601;51.356;12.458;2022-10-31T05:00:11;12.30;84.50
65034;DHT22;51601;51.356;12.458;2022-10-31T05:04:25;12.30;84.90
65034;DHT22;51601;51.356;12.458;2022-10-31T05:08:41;12.30;85.00
65034;DHT22;51601;51.356;12.458;2022-10-31T05:12:58;12.30;85.30
65034;DHT22;51601;51.356;12.458;2022-10-31T05:17:32;12.20;85.60
65034;DHT22;51601;51.356;12.458;2022-10-31T05:22:12;12.20;85.80
65034;DHT22;51601;51.356;12.458;2022-10-31T05:26:27;12.10;86.00
65034;DHT22;51601;51.356;12.458;2022-10-31T05:30:41;12.00;86.10
65034;DHT22;51601;51.356;12.458;2022-10-31T05:34:58;12.00;86.30
65034;DHT22;51601;51.356;12.458;2022-10-31T05:39:43;12.00;86.60
65034;DHT22;51601;51.356;12.458;2022-10-31T05:44:01;11.90;86.70
65034;DHT22;51601;51.356;12.458;2022-10-31T05:48:19;11.90;87.00
65034;DHT22;51601;51.356;12.458;2022-10-31T05:52:57;11.90;87.20
65034;DHT22;51601;51.356;12.458;2022-10-31T05:57:19;11.80;87.60
65034;DHT22;51601;51.356;12.458;2022-10-31T06:01:34;11.80;87.70
65034;DHT22;51601;51.356;12.458;2022-10-31T06:05:51;11.80;87.70
65034;DHT22;51601;51.356;12.458;2022-10-31T06:10:10;11.80;87.70
65034;DHT22;51601;51.356;12.458;2022-10-31T06:14:23;11.80;87.90
65034;DHT22;51601;51.356;12.458;2022-10-31T06:18:41;11.80;88.50
65034;DHT22;51601;51.356;12.458;2022-10-31T06:22:56;11.80;88.80
65034;DHT22;51601;51.356;12.458;2022-10-31T06:27:11;11.90;88.90
65034;DHT22;51601;51.356;12.458;2022-10-31T06:31:24;12.00;88.80
65034;DHT22;51601;51.356;12.458;2022-10-31T06:35:45;12.00;88.60
65034;DHT22;51601;51.356;12.458;2022-10-31T06:40:01;12.10;88.70
65034;DHT22;51601;51.356;12.458;2022-10-31T06:44:21;12.20;88.70
65034;DHT22;51601;51.356;12.458;2022-10-31T06:48:55;12.30;88.70
65034;DHT22;51601;51.356;12.458;2022-10-31T06:53:22;12.40;88.70
65034;DHT22;51601;51.356;12.458;2022-10-31T06:57:36;12.60;88.50
65034;DHT22;51601;51.356;12.458;2022-10-31T07:01:50;12.80;88.00
65034;DHT22;51601;51.356;12.458;2022-10-31T07:06:04;13.00;87.40
65034;DHT22;51601;51.356;12.458;2022-10-31T07:10:21;13.00;86.90
65034;DHT22;51601;51.356;12.458;2022-10-31T07:14:40;13.10;86.80
65034;DHT22;51601;51.356;12.458;2022-10-31T07:18:55;13.30;86.60
65034;DHT22;51601;51.356;12.458;2022-10-31T07:23:10;13.50;86.60
65034;DHT22;51601;51.356;12.458;2022-10-31T07:27:26;13.70;86.50
65034;DHT22;51601;51.356;12.458;2022-10-31T07:31:45;14.10;87.00
65034;DHT22;51601;51.356;12.458;2022-10-31T07:36:06;14.80;89.80
65034;DHT22;51601;51.356;12.458;2022-10-31T07:40:21;16.10;89.10
65034;DHT22;51601;51.356;12.458;2022-10-31T07:44:38;17.50;84.70
65034;DHT22;51601;51.356;12.458;2022-10-31T07:49:31;18.80;80.40
65034;DHT22;51601;51.356;12.458;2022-10-31T07:54:03;20.20;76.30
65034;DHT22;51601;51.356;12.458;2022-10-31T07:58:17;21.20;71.60
65034;DHT22;51601;51.356;12.458;2022-10-31T08:02:32;21.40;67.70
65034;DHT22;51601;51.356;12.458;2022-10-31T08:07:06;21.40;67.00
65034;DHT22;51601;51.356;12.458;2022-10-31T08:11:22;21.90;67.10
65034;DHT22;51601;51.356;12.458;2022-10-31T08:15:37;22.60;64.80
65034;DHT22;51601;51.356;12.458;2022-10-31T08:19:55;23.30;62.40
65034;DHT22;51601;51.356;12.458;2022-10-31T08:24:14;24.00;60.60
65034;DHT22;51601;51.356;12.458;2022-10-31T08:28:28;24.60;58.80
65034;DHT22;51601;51.356;12.458;2022-10-31T08:32:42;25.00;56.50
65034;DHT22;51601;51.356;12.458;2022-10-31T08:37:23;25.20;55.00
65034;DHT22;51601;51.356;12.458;2022-10-31T08:41:39;25.50;53.10
65034;DHT22;51601;51.356;12.458;2022-10-31T08:45:56;25.50;52.20
65034;DHT22;51601;51.356;12.458;2022-10-31T08:50:13;25.50;51.90
65034;DHT22;51601;51.356;12.458;2022-10-31T08:54:32;25.60;51.20
65034;DHT22;51601;51.356;12.458;2022-10-31T08:59:04;25.80;50.50
65034;DHT22;51601;51.356;12.458;2022-10-31T09:03:50;25.90;50.10
65034;DHT22;51601;51.356;12.458;2022-10-31T09:08:06;26.00;50.20
65034;DHT22;51601;51.356;12.458;2022-10-31T09:12:29;26.00;48.90
65034;DHT22;51601;51.356;12.458;2022-10-31T09:17:02;25.50;48.90
65034;DHT22;51601;51.356;12.458;2022-10-31T09:21:34;25.10;49.80
65034;DHT22;51601;51.356;12.458;2022-10-31T09:25:51;24.90;50.30
65034;DHT22;51601;51.356;12.458;2022-10-31T09:30:32;24.60;50.70
65034;DHT22;51601;51.356;12.458;2022-10-31T09:34:50;24.70;51.30
65034;DHT22;51601;51.356;12.458;2022-10-31T09:39:05;24.70;51.60
65034;DHT22;51601;51.356;12.458;2022-10-31T09:43:27;24.90;51.90
65034;DHT22;51601;51.356;12.458;2022-10-31T09:47:59;25.20;51.50
65034;DHT22;51601;51.356;12.458;2022-10-31T09:52:19;25.50;51.30
65034;DHT22;51601;51.356;12.458;2022-10-31T09:56:34;25.70;50.60
65034;DHT22;51601;51.356;12.458;2022-10-31T10:00:49;25.50;50.60
65034;DHT22;51601;51.356;12.458;2022-10-31T10:05:08;25.20;51.00
65034;DHT22;51601;51.356;12.458;2022-10-31T10:09:26;25.00;51.80
65034;DHT22;51601;51.356;12.458;2022-10-31T10:14:28;25.00;52.30
65034;DHT22;51601;51.356;12.458;2022-10-31T10:18:56;25.10;52.40
65034;DHT22;51601;51.356;12.458;2022-10-31T10:23:38;25.40;52.20
65034;DHT22;51601;51.356;12.458;2022-10-31T10:28:06;25.40;51.80
65034;DHT22;51601;51.356;12.458;2022-10-31T10:32:24;25.30;52.20
65034;DHT22;51601;51.356;12.458;2022-10-31T10:36:42;25.40;52.20
65034;DHT22;51601;51.356;12.458;2022-10-31T10:40:58;25.40;51.70
65034;DHT22;51601;51.356;12.458;2022-10-31T10:45:16;25.20;51.80
65034;DHT22;51601;51.356;12.458;2022-10-31T10:49:50;25.00;52.30
65034;DHT22;51601;51.356;12.458;2022-10-31T10:54:13;24.80;52.60
65034;DHT22;51601;51.356;12.458;2022-10-31T10:58:31;24.90;53.00
65034;DHT22;51601;51.356;12.458;2022-10-31T11:02:45;25.10;52.90
65034;DHT22;51601;51.356;12.458;2022-10-31T11:07:03;25.20;52.60
65034;DHT22;51601;51.356;12.458;2022-10-31T11:11:25;25.20;53.10
65034;DHT22;51601;51.356;12.458;2022-10-31T11:15:57;25.10;52.60
65034;DHT22;51601;51.356;12.458;2022-10-31T11:20:28;25.20;52.80
65034;DHT22;51601;51.356;12.458;2022-10-31T11:24:44;25.10;52.50
65034;DHT22;51601;51.356;12.458;2022-10-31T11:28:59;25.00;52.80
65034;DHT22;51601;51.356;12.458;2022-10-31T11:33:26;24.90;53.00
65034;DHT22;51601;51.356;12.458;2022-10-31T11:37:42;24.80;53.30
65034;DHT22;51601;51.356;12.458;2022-10-31T11:42:00;24.60;53.60
65034;DHT22;51601;51.356;12.458;2022-10-31T11:46:22;24.40;54.00
65034;DHT22;51601;51.356;12.458;2022-10-31T11:50:40;24.30;54.50
65034;DHT22;51601;51.356;12.458;2022-10-31T11:54:57;24.20;54.60
65034;DHT22;51601;51.356;12.458;2022-10-31T11:59:22;24.10;54.90
65034;DHT22;51601;51.356;12.458;2022-10-31T12:03:48;23.70;55.50
65034;DHT22;51601;51.356;12.458;2022-10-31T12:08:07;23.50;56.30
65034;DHT22;51601;51.356;12.458;2022-10-31T12:17:13;22.70;57.90
65034;DHT22;51601;51.356;12.458;2022-10-31T12:21:37;22.40;58.50
65034;DHT22;51601;51.356;12.458;2022-10-31T12:26:06;22.20;59.40
65034;DHT22;51601;51.356;12.458;2022-10-31T12:30:23;21.80;60.00
65034;DHT22;51601;51.356;12.458;2022-10-31T12:34:54;21.60;60.70
65034;DHT22;51601;51.356;12.458;2022-10-31T12:39:30;21.40;62.40
65034;DHT22;51601;51.356;12.458;2022-10-31T12:43:57;21.20;62.10
65034;DHT22;51601;51.356;12.458;2022-10-31T12:48:29;21.00;63.30
65034;DHT22;51601;51.356;12.458;2022-10-31T12:52:54;20.80;64.20
65034;DHT22;51601;51.356;12.458;2022-10-31T12:57:17;20.70;64.50
65034;DHT22;51601;51.356;12.458;2022-10-31T13:01:40;20.60;64.80
65034;DHT22;51601;51.356;12.458;2022-10-31T13:05:59;20.60;65.00
65034;DHT22;51601;51.356;12.458;2022-10-31T13:10:19;20.60;65.10
65034;DHT22;51601;51.356;12.458;2022-10-31T13:14:36;20.60;65.20
65034;DHT22;51601;51.356;12.458;2022-10-31T13:18:57;20.50;65.30
65034;DHT22;51601;51.356;12.458;2022-10-31T13:23:18;20.40;65.40
65034;DHT22;51601;51.356;12.458;2022-10-31T13:27:58;20.40;65.80
65034;DHT22;51601;51.356;12.458;2022-10-31T13:32:13;20.20;65.90
65034;DHT22;51601;51.356;12.458;2022-10-31T13:36:32;20.20;66.20
65034;DHT22;51601;51.356;12.458;2022-10-31T13:40:53;20.10;66.60
65034;DHT22;51601;51.356;12.458;2022-10-31T13:45:13;20.00;67.10
65034;DHT22;51601;51.356;12.458;2022-10-31T13:49:38;19.90;67.50
65034;DHT22;51601;51.356;12.458;2022-10-31T13:54:00;19.80;67.90
65034;DHT22;51601;51.356;12.458;2022-10-31T13:58:23;19.80;68.10
65034;DHT22;51601;51.356;12.458;2022-10-31T14:02:45;19.70;68.30
65034;DHT22;51601;51.356;12.458;2022-10-31T14:07:06;19.70;68.50
65034;DHT22;51601;51.356;12.458;2022-10-31T14:11:24;19.70;68.70
65034;DHT22;51601;51.356;12.458;2022-10-31T14:15:53;19.60;69.10
65034;DHT22;51601;51.356;12.458;2022-10-31T14:24:52;19.50;69.90
65034;DHT22;51601;51.356;12.458;2022-10-31T14:29:26;19.40;70.40
65034;DHT22;51601;51.356;12.458;2022-10-31T14:33:42;19.30;71.00
65034;DHT22;51601;51.356;12.458;2022-10-31T14:38:29;19.20;71.50
65034;DHT22;51601;51.356;12.458;2022-10-31T14:43:07;19.10;72.10
65034;DHT22;51601;51.356;12.458;2022-10-31T14:47:36;19.00;72.60
65034;DHT22;51601;51.356;12.458;2022-10-31T14:51:51;18.90;73.10
65034;DHT22;51601;51.356;12.458;2022-10-31T14:56:09;18.80;73.40
65034;DHT22;51601;51.356;12.458;2022-10-31T15:00:24;18.60;73.90
65034;DHT22;51601;51.356;12.458;2022-10-31T15:04:40;18.60;74.40
65034;DHT22;51601;51.356;12.458;2022-10-31T15:08:55;18.50;75.10
65034;DHT22;51601;51.356;12.458;2022-10-31T15:13:10;18.30;75.60
65034;DHT22;51601;51.356;12.458;2022-10-31T15:17:25;18.30;76.30
65034;DHT22;51601;51.356;12.458;2022-10-31T15:21:43;18.10;77.50
65034;DHT22;51601;51.356;12.458;2022-10-31T15:25:59;18.00;77.00
65034;DHT22;51601;51.356;12.458;2022-10-31T15:30:18;17.90;77.60
65034;DHT22;51601;51.356;12.458;2022-10-31T15:34:36;17.80;78.20
65034;DHT22;51601;51.356;12.458;2022-10-31T15:38:55;17.70;78.60
65034;DHT22;51601;51.356;12.458;2022-10-31T15:43:16;17.60;79.10
65034;DHT22;51601;51.356;12.458;2022-10-31T15:47:31;17.50;79.50
65034;DHT22;51601;51.356;12.458;2022-10-31T15:51:45;17.40;79.70
65034;DHT22;51601;51.356;12.458;2022-10-31T15:56:10;17.30;80.10
65034;DHT22;51601;51.356;12.458;2022-10-31T16:00:26;17.20;80.60
65034;DHT22;51601;51.356;12.458;2022-10-31T16:04:49;17.10;81.00
65034;DHT22;51601;51.356;12.458;2022-10-31T16:09:04;17.00;81.60
65034;DHT22;51601;51.356;12.458;2022-10-31T16:13:35;16.90;82.20
65034;DHT22;51601;51.356;12.458;2022-10-31T16:17:50;16.80;83.30
65034;DHT22;51601;51.356;12.458;2022-10-31T16:22:14;16.70;84.10
65034;DHT22;51601;51.356;12.458;2022-10-31T16:26:33;16.60;84.80
65034;DHT22;51601;51.356;12.458;2022-10-31T16:30:49;16.50;85.50
65034;DHT22;51601;51.356;12.458;2022-10-31T16:35:19;16.50;86.80
65034;DHT22;51601;51.356;12.458;2022-10-31T16:39:36;16.40;87.90
65034;DHT22;51601;51.356;12.458;2022-10-31T16:43:50;16.40;88.60
65034;DHT22;51601;51.356;12.458;2022-10-31T16:48:09;16.40;89.00
65034;DHT22;51601;51.356;12.458;2022-10-31T16:52:23;16.40;89.40
65034;DHT22;51601;51.356;12.458;2022-10-31T16:56:37;16.30;89.60
65034;DHT22;51601;51.356;12.458;2022-10-31T17:00:52;16.30;89.80
65034;DHT22;51601;51.356;12.458;2022-10-31T17:05:12;16.20;89.80
65034;DHT22;51601;51.356;12.458;2022-10-31T17:09:26;16.20;90.10
65034;DHT22;51601;51.356;12.458;2022-10-31T17:13:40;16.10;90.20
65034;DHT22;51601;51.356;12.458;2022-10-31T17:17:57;16.10;90.70
65034;DHT22;51601;51.356;12.458;2022-10-31T17:22:13;16.10;90.60
65034;DHT22;51601;51.356;12.458;2022-10-31T17:26:30;16.00;90.70
65034;DHT22;51601;51.356;12.458;2022-10-31T17:31:04;16.10;90.80
65034;DHT22;51601;51.356;12.458;2022-10-31T17:35:57;16.00;90.90
65034;DHT22;51601;51.356;12.458;2022-10-31T17:40:17;16.00;91.10
65034;DHT22;51601;51.356;12.458;2022-10-31T17:44:53;15.90;91.20
65034;DHT22;51601;51.356;12.458;2022-10-31T17:49:10;15.90;91.40
65034;DHT22;51601;51.356;12.458;2022-10-31T17:53:23;15.80;91.50
65034;DHT22;51601;51.356;12.458;2022-10-31T17:57:42;15.80;91.70
65034;DHT22;51601;51.356;12.458;2022-10-31T18:02:00;15.80;92.00
65034;DHT22;51601;51.356;12.458;2022-10-31T18:06:20;15.70;92.00
65034;DHT22;51601;51.356;12.458;2022-10-31T18:10:38;15.70;92.10
65034;DHT22;51601;51.356;12.458;2022-10-31T18:14:54;15.70;92.20
65034;DHT22;51601;51.356;12.458;2022-10-31T18:19:11;15.60;92.30
65034;DHT22;51601;51.356;12.458;2022-10-31T18:23:25;15.50;92.50
65034;DHT22;51601;51.356;12.458;2022-10-31T18:27:46;15.50;92.60
65034;DHT22;51601;51.356;12.458;2022-10-31T18:32:04;15.40;92.80
65034;DHT22;51601;51.356;12.458;2022-10-31T18:36:21;15.40;93.00
65034;DHT22;51601;51.356;12.458;2022-10-31T18:40:37;15.30;93.10
65034;DHT22;51601;51.356;12.458;2022-10-31T18:44:51;15.30;93.20
65034;DHT22;51601;51.356;12.458;2022-10-31T18:49:06;15.20;93.40
65034;DHT22;51601;51.356;12.458;2022-10-31T18:53:20;15.20;93.50
65034;DHT22;51601;51.356;12.458;2022-10-31T18:57:33;15.20;93.60
65034;DHT22;51601;51.356;12.458;2022-10-31T19:01:47;15.20;93.70
65034;DHT22;51601;51.356;12.458;2022-10-31T19:06:03;15.10;93.90
65034;DHT22;51601;51.356;12.458;2022-10-31T19:10:25;15.00;94.10
65034;DHT22;51601;51.356;12.458;2022-10-31T19:14:52;15.10;94.20
65034;DHT22;51601;51.356;12.458;2022-10-31T19:19:31;15.00;94.30
65034;DHT22;51601;51.356;12.458;2022-10-31T19:23:52;15.00;94.40
65034;DHT22;51601;51.356;12.458;2022-10-31T19:28:23;15.00;94.20
65034;DHT22;51601;51.356;12.458;2022-10-31T19:32:41;15.00;94.50
65034;DHT22;51601;51.356;12.458;2022-10-31T19:37:11;15.00;94.60
65034;DHT22;51601;51.356;12.458;2022-10-31T19:41:32;15.00;94.60
65034;DHT22;51601;51.356;12.458;2022-10-31T19:46:01;14.90;94.70
65034;DHT22;51601;51.356;12.458;2022-10-31T19:50:24;15.00;94.90
65034;DHT22;51601;51.356;12.458;2022-10-31T19:54:55;15.00;95.20
65034;DHT22;51601;51.356;12.458;2022-10-31T19:59:10;15.00;94.80
65034;DHT22;51601;51.356;12.458;2022-10-31T20:03:34;15.00;94.90
65034;DHT22;51601;51.356;12.458;2022-10-31T20:08:04;15.00;94.90
65034;DHT22;51601;51.356;12.458;2022-10-31T20:12:18;15.00;94.80
65034;DHT22;51601;51.356;12.458;2022-10-31T20:16:34;15.00;94.70
65034;DHT22;51601;51.356;12.458;2022-10-31T20:21:00;15.00;94.60
65034;DHT22;51601;51.356;12.458;2022-10-31T20:25:23;14.90;94.50
65034;DHT22;51601;51.356;12.458;2022-10-31T20:29:47;14.90;94.40
65034;DHT22;51601;51.356;12.458;2022-10-31T20:34:09;14.80;94.70
65034;DHT22;51601;51.356;12.458;2022-10-31T20:38:32;14.80;94.50
65034;DHT22;51601;51.356;12.458;2022-10-31T20:42:56;14.80;94.40
65034;DHT22;51601;51.356;12.458;2022-10-31T20:47:13;14.70;94.40
65034;DHT22;51601;51.356;12.458;2022-10-31T20:51:28;14.60;94.40
65034;DHT22;51601;51.356;12.458;2022-10-31T20:55:47;14.60;94.50
65034;DHT22;51601;51.356;12.458;2022-10-31T21:00:21;14.50;94.80
65034;DHT22;51601;51.356;12.458;2022-10-31T21:04:36;14.50;95.00
65034;DHT22;51601;51.356;12.458;2022-10-31T21:08:54;14.60;95.10
65034;DHT22;51601;51.356;12.458;2022-10-31T21:13:11;14.60;95.20
65034;DHT22;51601;51.356;12.458;2022-10-31T21:17:25;14.60;95.20
65034;DHT22;51601;51.356;12.458;2022-10-31T21:21:43;14.60;95.10
65034;DHT22;51601;51.356;12.458;2022-10-31T21:26:03;14.60;95.00
65034;DHT22;51601;51.356;12.458;2022-10-31T21:30:17;14.60;94.90
65034;DHT22;51601;51.356;12.458;2022-10-31T21:34:31;14.60;94.90
65034;DHT22;51601;51.356;12.458;2022-10-31T21:38:49;14.60;95.30
65034;DHT22;51601;51.356;12.458;2022-10-31T21:43:05;14.60;95.00
65034;DHT22;51601;51.356;12.458;2022-10-31T21:47:19;14.50;95.00
65034;DHT22;51601;51.356;12.458;2022-10-31T21:51:35;14.50;95.00
65034;DHT22;51601;51.356;12.458;2022-10-31T21:55:49;14.50;95.00
65034;DHT22;51601;51.356;12.458;2022-10-31T22:00:06;14.50;95.00
65034;DHT22;51601;51.356;12.458;2022-10-31T22:04:25;14.50;95.00
65034;DHT22;51601;51.356;12.458;2022-10-31T22:08:39;14.50;94.90
65034;DHT22;51601;51.356;12.458;2022-10-31T22:12:57;14.50;94.90
65034;DHT22;51601;51.356;12.458;2022-10-31T22:17:27;14.60;94.80
65034;DHT22;51601;51.356;12.458;2022-10-31T22:21:45;14.50;94.80
65034;DHT22;51601;51.356;12.458;2022-10-31T22:26:04;14.50;94.70
65034;DHT22;51601;51.356;12.458;2022-10-31T22:30:18;14.60;94.70
65034;DHT22;51601;51.356;12.458;2022-10-31T22:34:33;14.50;94.70
65034;DHT22;51601;51.356;12.458;2022-10-31T22:38:47;14.50;94.70
65034;DHT22;51601;51.356;12.458;2022-10-31T22:43:02;14.50;94.60
65034;DHT22;51601;51.356;12.458;2022-10-31T22:47:16;14.50;94.70
65034;DHT22;51601;51.356;12.458;2022-10-31T22:51:32;14.50;94.70
65034;DHT22;51601;51.356;12.458;2022-10-31T22:55:48;14.50;94.60
65034;DHT22;51601;51.356;12.458;2022-10-31T23:00:03;14.50;94.60
65034;DHT22;51601;51.356;12.458;2022-10-31T23:04:17;14.50;94.50
65034;DHT22;51601;51.356;12.458;2022-10-31T23:08:34;14.50;94.50
65034;DHT22;51601;51.356;12.458;2022-10-31T23:12:48;14.50;94.50
65034;DHT22;51601;51.356;12.458;2022-10-31T23:17:19;14.40;94.50
65034;DHT22;51601;51.356;12.458;2022-10-31T23:21:34;14.50;94.50
65034;DHT22;51601;51.356;12.458;2022-10-31T23:26:08;14.40;94.50
65034;DHT22;51601;51.356;12.458;2022-10-31T23:30:40;14.40;94.40
65034;DHT22;51601;51.356;12.458;2022-10-31T23:34:55;14.40;94.30
65034;DHT22;51601;51.356;12.458;2022-10-31T23:39:09;14.40;94.20
65034;DHT22;51601;51.356;12.458;2022-10-31T23:43:24;14.30;94.10
65034;DHT22;51601;51.356;12.458;2022-10-31T23:47:37;14.30;94.10
65034;DHT22;51601;51.356;12.458;2022-10-31T23:51:55;14.30;94.00
65034;DHT22;51601;51.356;12.458;2022-10-31T23:56:09;14.30;94.10
